createdAt,value
2023-03-15T00:01:19.838Z,1.23
2023-03-15T00:03:47.876Z,1.23
2023-03-15T00:06:15.805Z,2.10
2023-03-15T00:08:47.391Z,1.17
2023-03-15T00:11:18.837Z,0.85
2023-03-15T00:13:47.359Z,0.70
2023-03-15T00:16:18.659Z,1.25
2023-03-15T00:18:47.202Z,0.80
2023-03-15T00:21:15.416Z,1.55
2023-03-15T00:23:42.822Z,2.30
2023-03-15T00:26:10.461Z,3.00
2023-03-15T00:28:38.251Z,1.75
2023-03-15T00:31:14.788Z,1.17
2023-03-15T00:33:42.710Z,0.68
2023-03-15T00:36:10.806Z,1.23
2023-03-15T00:38:39.520Z,1.08
2023-03-15T00:41:08.801Z,1.20
2023-03-15T00:43:36.375Z,0.95
2023-03-15T00:46:04.637Z,1.20
2023-03-15T00:48:32.897Z,1.17
2023-03-15T00:51:04.337Z,1.25
2023-03-15T00:53:32.482Z,1.10
2023-03-15T00:56:04.621Z,2.70
2023-03-15T00:58:32.317Z,2.30
2023-03-15T01:01:00.757Z,2.42
2023-03-15T01:03:28.693Z,0.88
2023-03-15T01:05:56.506Z,1.10
2023-03-15T01:08:24.160Z,1.87
2023-03-15T01:10:51.528Z,2.28
2023-03-15T01:13:19.192Z,2.03
2023-03-15T01:15:47.829Z,1.05
2023-03-15T01:18:15.311Z,1.62
2023-03-15T01:20:44.856Z,2.45
2023-03-15T01:23:12.521Z,1.75
2023-03-15T01:25:40.565Z,1.12
2023-03-15T01:28:08.255Z,1.33
2023-03-15T01:30:35.951Z,2.30
2023-03-15T01:33:03.875Z,1.00
2023-03-15T01:35:31.583Z,0.85
2023-03-15T01:37:59.223Z,1.73
2023-03-15T01:40:27.229Z,1.92
2023-03-15T01:43:04.265Z,1.02
2023-03-15T01:45:59.688Z,1.70
2023-03-15T01:48:33.884Z,1.52
2023-03-15T01:51:04.895Z,1.12
2023-03-15T01:53:33.069Z,1.23
2023-03-15T01:56:01.260Z,2.60
2023-03-15T01:58:29.712Z,1.17
2023-03-15T02:00:57.670Z,1.23
2023-03-15T02:03:36.753Z,1.08
2023-03-15T02:06:07.514Z,1.12
2023-03-15T02:08:41.344Z,1.75
2023-03-15T02:11:08.877Z,1.48
2023-03-15T02:13:36.640Z,1.77
2023-03-15T02:16:06.984Z,2.08
2023-03-15T02:18:37.616Z,1.23
2023-03-15T02:21:15.745Z,1.75
2023-03-15T02:23:44.338Z,1.75
2023-03-15T02:26:26.178Z,2.35
2023-03-15T02:28:54.400Z,1.50
2023-03-15T02:31:22.039Z,1.27
2023-03-15T02:33:51.608Z,0.98
2023-03-15T02:36:24.488Z,1.87
2023-03-15T02:38:52.514Z,1.90
2023-03-15T02:41:28.589Z,2.00
2023-03-15T02:44:00.332Z,1.42
2023-03-15T02:46:28.457Z,1.00
2023-03-15T02:48:55.962Z,1.02
2023-03-15T02:51:24.726Z,2.50
2023-03-15T02:53:52.354Z,2.75
2023-03-15T02:56:20.121Z,1.73
2023-03-15T02:58:47.801Z,2.72
2023-03-15T03:01:16.926Z,1.00
2023-03-15T03:03:46.539Z,2.25
2023-03-15T03:06:15.923Z,1.48
2023-03-15T03:08:47.191Z,3.72
2023-03-15T03:11:15.784Z,1.33
2023-03-15T03:13:43.758Z,3.85
2023-03-15T03:16:11.948Z,1.60
2023-03-15T03:18:42.165Z,1.98
2023-03-15T03:21:09.647Z,1.30
2023-03-15T03:23:37.358Z,1.85
2023-03-15T03:26:16.567Z,3.08
2023-03-15T03:28:46.364Z,3.70
2023-03-15T03:31:25.994Z,2.00
2023-03-15T03:33:55.854Z,1.35
2023-03-15T03:36:25.604Z,1.17
2023-03-15T03:38:53.738Z,1.33
2023-03-15T03:41:21.538Z,1.25
2023-03-15T03:43:49.120Z,1.10
2023-03-15T03:46:16.856Z,1.90
2023-03-15T03:48:45.884Z,1.52
2023-03-15T03:51:13.324Z,1.33
2023-03-15T03:53:40.785Z,0.90
2023-03-15T03:56:08.737Z,1.87
2023-03-15T03:58:36.351Z,1.62
2023-03-15T04:01:05.168Z,1.12
2023-03-15T04:03:33.241Z,1.55
2023-03-15T04:06:02.313Z,1.48
2023-03-15T04:08:29.771Z,1.80
2023-03-15T04:10:57.892Z,1.48
2023-03-15T04:13:25.899Z,0.88
2023-03-15T04:15:57.762Z,1.67
2023-03-15T04:18:27.773Z,1.95
2023-03-15T04:20:56.066Z,2.10
2023-03-15T04:23:23.909Z,1.30
2023-03-15T04:25:52.726Z,1.27
2023-03-15T04:28:22.730Z,0.73
2023-03-15T04:30:50.580Z,0.70
2023-03-15T04:33:19.300Z,1.10
2023-03-15T04:35:47.148Z,1.20
2023-03-15T04:38:15.926Z,0.68
2023-03-15T04:40:43.833Z,0.70
2023-03-15T04:43:11.501Z,0.77
2023-03-15T04:45:39.258Z,0.50
2023-03-15T04:48:07.336Z,0.88
2023-03-15T04:50:35.378Z,1.65
2023-03-15T04:53:03.954Z,2.28
2023-03-15T04:55:34.156Z,0.80
2023-03-15T04:58:04.465Z,0.65
2023-03-15T05:00:32.176Z,1.45
2023-03-15T05:03:00.183Z,0.98
2023-03-15T05:05:29.355Z,2.05
2023-03-15T05:07:56.910Z,1.23
2023-03-15T05:10:25.403Z,0.98
2023-03-15T05:12:53.080Z,1.23
2023-03-15T05:15:20.831Z,1.35
2023-03-15T05:17:49.293Z,2.03
2023-03-15T05:20:17.012Z,2.55
2023-03-15T05:22:45.928Z,2.37
2023-03-15T05:25:15.348Z,3.03
2023-03-15T05:27:46.364Z,1.15
2023-03-15T05:30:16.162Z,1.80
2023-03-15T05:32:44.649Z,1.62
2023-03-15T05:35:13.303Z,4.47
2023-03-15T05:37:42.322Z,2.05
2023-03-15T05:40:11.440Z,2.62
2023-03-15T05:42:40.003Z,3.97
2023-03-15T05:45:08.617Z,2.67
2023-03-15T05:47:36.565Z,2.12
2023-03-15T05:50:05.054Z,2.72
2023-03-15T05:52:33.142Z,2.45
2023-03-15T05:55:02.422Z,3.30
2023-03-15T05:57:30.854Z,2.42
2023-03-15T05:59:59.108Z,2.70
2023-03-15T06:02:26.608Z,2.60
2023-03-15T06:04:55.216Z,2.62
2023-03-15T06:07:22.857Z,2.78
2023-03-15T06:09:52.055Z,2.33
2023-03-15T06:12:20.119Z,3.00
2023-03-15T06:14:47.954Z,3.80
2023-03-15T06:17:15.416Z,2.55
2023-03-15T06:19:43.549Z,2.95
2023-03-15T06:22:10.996Z,4.05
2023-03-15T06:24:38.518Z,4.00
2023-03-15T06:27:06.289Z,10.57
2023-03-15T06:29:35.483Z,16.15
2023-03-15T06:32:03.705Z,10.88
2023-03-15T06:34:31.620Z,12.30
2023-03-15T06:36:59.232Z,15.82
2023-03-15T06:39:26.628Z,4.80
2023-03-15T06:41:57.357Z,5.18
2023-03-15T06:44:25.802Z,5.12
2023-03-15T06:46:53.542Z,5.68
2023-03-15T06:49:21.280Z,4.32
2023-03-15T06:51:49.690Z,3.78
2023-03-15T06:54:17.169Z,4.32
2023-03-15T06:56:44.851Z,5.30
2023-03-15T06:59:12.237Z,6.97
2023-03-15T07:01:39.734Z,4.60
2023-03-15T07:04:08.456Z,4.85
2023-03-15T07:06:36.177Z,5.20
2023-03-15T07:09:05.288Z,5.15
2023-03-15T07:11:33.403Z,3.00
2023-03-15T07:14:01.022Z,5.35
2023-03-15T07:16:28.350Z,5.07
2023-03-15T07:18:56.580Z,4.53
2023-03-15T07:21:24.058Z,6.57
2023-03-15T07:23:51.862Z,6.28
2023-03-15T07:26:19.483Z,4.43
2023-03-15T07:28:46.985Z,6.60
2023-03-15T07:31:14.497Z,5.15
2023-03-15T07:33:42.277Z,5.47
2023-03-15T07:36:09.952Z,4.85
2023-03-15T07:38:37.404Z,5.90
2023-03-15T07:41:06.429Z,6.60
2023-03-15T07:43:34.470Z,5.43
2023-03-15T07:46:06.873Z,8.02
2023-03-15T07:48:34.569Z,5.22
2023-03-15T07:51:02.074Z,7.35
2023-03-15T07:53:29.958Z,7.47
2023-03-15T07:55:57.643Z,5.75
2023-03-15T07:58:25.049Z,7.93
2023-03-15T08:00:55.368Z,8.05
2023-03-15T08:03:24.609Z,8.65
2023-03-15T08:05:52.084Z,5.95
2023-03-15T08:08:19.847Z,7.93
2023-03-15T08:10:47.536Z,7.28
2023-03-15T08:13:14.966Z,6.95
2023-03-15T08:15:45.739Z,7.10
2023-03-15T08:18:14.130Z,4.43
2023-03-15T08:20:41.604Z,5.68
2023-03-15T08:23:09.265Z,9.23
2023-03-15T08:25:40.708Z,5.22
2023-03-15T08:28:08.518Z,7.15
2023-03-15T08:30:36.080Z,5.32
2023-03-15T08:33:03.975Z,6.62
2023-03-15T08:35:33.091Z,4.62
2023-03-15T08:38:02.750Z,5.50
2023-03-15T08:40:31.237Z,4.75
2023-03-15T08:42:59.638Z,5.32
2023-03-15T08:45:27.229Z,5.22
2023-03-15T08:47:59.096Z,7.55
2023-03-15T08:50:27.566Z,5.47
2023-03-15T08:52:55.653Z,4.07
2023-03-15T08:55:23.314Z,7.70
2023-03-15T08:57:50.740Z,3.85
2023-03-15T09:00:22.897Z,4.90
2023-03-15T09:02:55.099Z,4.80
2023-03-15T09:05:24.121Z,6.62
2023-03-15T09:07:53.168Z,5.57
2023-03-15T09:10:22.096Z,7.15
2023-03-15T09:12:52.202Z,6.28
2023-03-15T09:15:19.738Z,5.75
2023-03-15T09:17:49.557Z,5.60
2023-03-15T09:20:19.218Z,6.47
2023-03-15T09:22:57.146Z,6.93
2023-03-15T09:25:25.600Z,4.22
2023-03-15T09:27:53.430Z,6.25
2023-03-15T09:30:21.153Z,5.37
2023-03-15T09:32:49.177Z,4.32
2023-03-15T09:35:19.002Z,6.47
2023-03-15T09:37:47.555Z,4.78
2023-03-15T09:40:17.885Z,7.53
2023-03-15T09:42:57.047Z,4.72
2023-03-15T09:45:28.402Z,5.35
2023-03-15T09:48:33.608Z,6.05
2023-03-15T09:51:40.098Z,5.93
2023-03-15T09:54:13.508Z,4.40
2023-03-15T09:56:58.716Z,6.05
2023-03-15T09:59:30.718Z,7.72
2023-03-15T10:01:59.431Z,3.87
2023-03-15T10:04:34.872Z,7.75
2023-03-15T10:07:03.530Z,7.78
2023-03-15T10:09:35.494Z,8.77
2023-03-15T10:12:10.906Z,8.17
2023-03-15T10:14:59.521Z,7.57
2023-03-15T10:17:40.520Z,6.18
2023-03-15T10:20:14.040Z,3.28
2023-03-15T10:22:51.231Z,15.65
2023-03-15T10:25:26.271Z,9.10
2023-03-15T10:27:59.726Z,9.55
2023-03-15T10:30:30.105Z,14.38
2023-03-15T10:33:03.259Z,8.98
2023-03-15T10:35:32.151Z,11.02
2023-03-15T10:37:59.839Z,7.97
2023-03-15T10:40:51.755Z,7.78
2023-03-15T10:43:32.011Z,7.12
2023-03-15T10:46:01.225Z,5.40
2023-03-15T10:48:31.559Z,4.97
2023-03-15T10:51:19.589Z,6.12
2023-03-15T10:54:06.818Z,6.22
2023-03-15T10:57:02.096Z,7.60
2023-03-15T10:59:32.454Z,7.80
2023-03-15T11:02:12.077Z,6.40
2023-03-15T11:05:10.087Z,7.12
2023-03-15T11:07:37.466Z,6.15
2023-03-15T11:10:06.830Z,6.18
2023-03-15T11:12:35.091Z,5.68
2023-03-15T11:15:15.375Z,5.22
2023-03-15T11:17:45.929Z,10.65
2023-03-15T11:20:30.400Z,8.00
2023-03-15T11:23:00.052Z,5.20
2023-03-15T11:25:31.393Z,5.35
2023-03-15T11:28:00.096Z,6.15
2023-03-15T11:30:31.276Z,8.13
2023-03-15T11:33:05.293Z,8.10
2023-03-15T11:35:36.378Z,6.75
2023-03-15T11:38:15.583Z,9.25
2023-03-15T11:40:45.478Z,7.35
2023-03-15T11:43:22.214Z,7.00
2023-03-15T11:45:59.149Z,5.35
2023-03-15T11:48:42.609Z,6.37
2023-03-15T11:51:11.808Z,4.62
2023-03-15T11:53:50.166Z,5.78
2023-03-15T11:56:29.994Z,6.18
2023-03-15T11:59:12.896Z,6.43
2023-03-15T12:04:32.173Z,7.80
2023-03-15T12:07:03.379Z,4.22
2023-03-15T12:09:36.218Z,4.72
2023-03-15T12:12:23.854Z,9.75
2023-03-15T12:15:36.022Z,6.47
2023-03-15T12:18:07.487Z,7.40
2023-03-15T12:20:42.904Z,6.37
2023-03-15T12:23:18.580Z,6.95
2023-03-15T12:25:55.283Z,6.43
2023-03-15T12:28:45.340Z,6.78
2023-03-15T12:31:14.150Z,4.32
2023-03-15T12:33:57.729Z,7.50
2023-03-15T12:36:37.246Z,6.00
2023-03-15T12:39:13.966Z,5.25
2023-03-15T12:41:44.259Z,7.60
2023-03-15T12:44:25.387Z,8.30
2023-03-15T12:46:54.932Z,6.18
2023-03-15T12:49:25.243Z,5.65
2023-03-15T12:51:59.477Z,6.93
2023-03-15T12:54:33.096Z,4.90
2023-03-15T12:57:03.254Z,8.63
2023-03-15T12:59:36.103Z,4.65
2023-03-15T13:02:43.274Z,4.90
2023-03-15T13:05:17.339Z,5.70
2023-03-15T13:07:52.143Z,5.50
2023-03-15T13:10:40.643Z,4.60
2023-03-15T13:13:17.368Z,4.53
2023-03-15T13:15:59.028Z,5.60
2023-03-15T13:18:27.276Z,5.18
2023-03-15T13:21:10.113Z,5.05
2023-03-15T13:23:37.895Z,5.47
2023-03-15T13:26:43.210Z,6.87
2023-03-15T13:29:15.075Z,6.35
2023-03-15T13:31:43.788Z,5.80
2023-03-15T13:34:16.849Z,4.82
2023-03-15T13:36:49.441Z,6.55
2023-03-15T13:39:23.400Z,5.75
2023-03-15T13:42:00.180Z,2.80
2023-03-15T13:44:29.150Z,8.93
2023-03-15T13:46:57.488Z,4.80
2023-03-15T13:49:25.854Z,4.78
2023-03-15T13:51:54.105Z,5.00
2023-03-15T13:54:26.967Z,6.00
2023-03-15T13:57:07.348Z,5.90
2023-03-15T13:59:52.701Z,6.18
2023-03-15T14:02:38.496Z,4.47
2023-03-15T14:05:13.357Z,3.70
2023-03-15T14:07:46.938Z,5.07
2023-03-15T14:10:32.196Z,4.87
2023-03-15T14:13:15.625Z,3.17
2023-03-15T14:15:44.364Z,5.10
2023-03-15T14:18:11.620Z,7.10
2023-03-15T14:20:48.067Z,4.18
2023-03-15T14:23:18.120Z,5.43
2023-03-15T14:25:53.017Z,4.53
2023-03-15T14:28:21.277Z,6.37
2023-03-15T14:30:57.311Z,3.15
2023-03-15T14:33:41.914Z,5.47
2023-03-15T14:36:25.972Z,5.68
2023-03-15T14:38:55.232Z,4.20
2023-03-15T14:41:31.289Z,5.80
2023-03-15T14:44:01.037Z,11.32
2023-03-15T14:46:29.984Z,11.02
2023-03-15T14:48:57.704Z,6.18
2023-03-15T14:51:26.909Z,2.92
2023-03-15T14:53:56.236Z,3.03
2023-03-15T14:56:24.870Z,5.55
2023-03-15T14:58:55.441Z,5.37
2023-03-15T15:01:25.126Z,4.55
2023-03-15T15:03:55.293Z,3.33
2023-03-15T15:06:22.719Z,7.53
2023-03-15T15:08:52.905Z,4.85
2023-03-15T15:11:20.603Z,5.22
2023-03-15T15:13:47.979Z,4.53
2023-03-15T15:16:15.446Z,3.97
2023-03-15T15:18:43.145Z,4.18
2023-03-15T15:21:21.937Z,8.23
2023-03-15T15:23:59.172Z,4.57
2023-03-15T15:26:28.801Z,6.03
2023-03-15T15:28:56.881Z,6.43
2023-03-15T15:31:25.969Z,3.75
2023-03-15T15:33:54.518Z,5.03
2023-03-15T15:36:36.649Z,6.80
2023-03-15T15:39:07.476Z,4.78
2023-03-15T15:41:35.324Z,6.10
2023-03-15T15:44:03.048Z,5.00
2023-03-15T15:46:30.617Z,3.85
2023-03-15T15:48:58.785Z,7.05
2023-03-15T15:51:28.903Z,4.55
2023-03-15T15:54:00.784Z,5.03
2023-03-15T15:56:44.159Z,3.40
2023-03-15T15:59:14.873Z,10.20
2023-03-15T16:01:58.859Z,9.05
2023-03-15T16:04:27.409Z,5.45
2023-03-15T16:06:58.573Z,5.00
2023-03-15T16:09:28.237Z,3.90
2023-03-15T16:11:55.918Z,4.97
2023-03-15T16:14:23.332Z,4.55
2023-03-15T16:16:50.771Z,3.22
2023-03-15T16:19:18.446Z,10.73
2023-03-15T16:21:47.914Z,8.93
2023-03-15T16:24:25.333Z,6.15
2023-03-15T16:26:58.996Z,3.78
2023-03-15T16:29:38.699Z,3.78
2023-03-15T16:32:16.893Z,3.22
2023-03-15T16:34:47.727Z,13.15
2023-03-15T16:37:22.684Z,7.95
2023-03-15T16:39:51.007Z,7.15
2023-03-15T16:42:19.176Z,6.68
2023-03-15T16:44:46.809Z,7.03
2023-03-15T16:47:14.177Z,4.87
2023-03-15T16:49:41.894Z,4.03
2023-03-15T16:52:11.749Z,5.62
2023-03-15T16:54:41.577Z,6.43
2023-03-15T16:57:21.885Z,4.80
2023-03-15T16:59:49.936Z,3.83
2023-03-15T17:02:20.271Z,5.07
2023-03-15T17:04:47.790Z,9.30
2023-03-15T17:07:15.796Z,8.20
2023-03-15T17:09:45.774Z,6.50
2023-03-15T17:12:33.376Z,5.93
2023-03-15T17:15:01.145Z,4.28
2023-03-15T17:17:31.398Z,6.68
2023-03-15T17:19:59.794Z,6.70
2023-03-15T17:22:27.552Z,3.97
2023-03-15T17:24:54.993Z,6.05
2023-03-15T17:27:27.514Z,6.35
2023-03-15T17:29:55.101Z,4.53
2023-03-15T17:32:22.665Z,3.90
2023-03-15T17:34:50.145Z,4.40
2023-03-15T17:37:18.652Z,4.43
2023-03-15T17:39:47.643Z,5.40
2023-03-15T17:42:15.389Z,4.00
2023-03-15T17:44:43.072Z,5.18
2023-03-15T17:47:13.727Z,8.65
2023-03-15T17:49:41.171Z,4.50
2023-03-15T17:52:13.058Z,3.92
2023-03-15T17:54:40.954Z,6.90
2023-03-15T17:57:11.788Z,3.08
2023-03-15T17:59:39.458Z,4.12
2023-03-15T18:02:13.754Z,4.43
2023-03-15T18:04:41.694Z,4.03
2023-03-15T18:07:09.090Z,3.50
2023-03-15T18:09:36.440Z,4.00
2023-03-15T18:12:04.206Z,6.70
2023-03-15T18:14:36.974Z,3.58
2023-03-15T18:17:05.339Z,6.10
2023-03-15T18:19:32.796Z,5.05
2023-03-15T18:22:00.216Z,3.72
2023-03-15T18:24:27.878Z,4.72
2023-03-15T18:26:55.256Z,3.35
2023-03-15T18:29:23.097Z,5.55
2023-03-15T18:31:50.868Z,5.28
2023-03-15T18:34:21.815Z,5.15
2023-03-15T18:36:49.442Z,4.87
2023-03-15T18:39:17.725Z,3.78
2023-03-15T18:41:45.122Z,3.47
2023-03-15T18:44:12.466Z,3.37
2023-03-15T18:46:43.744Z,3.50
2023-03-15T18:49:11.096Z,3.42
2023-03-15T18:51:38.480Z,3.80
2023-03-15T18:54:06.169Z,7.40
2023-03-15T18:56:35.769Z,4.87
2023-03-15T18:59:03.511Z,3.62
2023-03-15T19:01:32.339Z,8.00
2023-03-15T19:03:59.751Z,4.55
2023-03-15T19:06:27.478Z,11.93
2023-03-15T19:08:55.223Z,7.97
2023-03-15T19:11:24.399Z,8.90
2023-03-15T19:13:51.829Z,4.35
2023-03-15T19:16:23.278Z,6.82
2023-03-15T19:18:51.918Z,10.50
2023-03-15T19:21:20.121Z,7.47
2023-03-15T19:23:47.636Z,3.80
2023-03-15T19:26:15.073Z,5.95
2023-03-15T19:28:42.892Z,5.80
2023-03-15T19:31:11.281Z,5.45
2023-03-15T19:33:38.725Z,9.90
2023-03-15T19:36:06.800Z,2.95
2023-03-15T19:38:34.630Z,4.97
2023-03-15T19:41:06.234Z,3.90
2023-03-15T19:43:34.157Z,3.00
2023-03-15T19:46:01.667Z,4.05
2023-03-15T19:48:29.318Z,2.55
2023-03-15T19:50:57.048Z,4.50
2023-03-15T19:53:25.523Z,3.83
2023-03-15T19:55:53.014Z,5.32
2023-03-15T19:58:20.990Z,6.37
2023-03-15T20:00:54.155Z,7.15
2023-03-15T20:03:21.785Z,5.68
2023-03-15T20:05:49.204Z,9.25
2023-03-15T20:08:16.646Z,6.55
2023-03-15T20:10:44.314Z,4.95
2023-03-15T20:13:11.758Z,4.22
2023-03-15T20:15:39.314Z,5.35
2023-03-15T20:18:08.174Z,4.90
2023-03-15T20:20:35.807Z,4.87
2023-03-15T20:23:03.656Z,6.95
2023-03-15T20:25:31.627Z,5.53
2023-03-15T20:27:59.024Z,5.87
2023-03-15T20:30:26.739Z,5.10
2023-03-15T20:32:54.711Z,6.57
2023-03-15T20:35:22.229Z,7.28
2023-03-15T20:37:49.657Z,5.95
2023-03-15T20:40:17.437Z,6.03
2023-03-15T20:42:45.021Z,4.70
2023-03-15T20:45:13.686Z,3.75
2023-03-15T20:47:41.624Z,9.27
2023-03-15T20:50:10.543Z,3.95
2023-03-15T20:52:38.030Z,3.87
2023-03-15T20:55:07.849Z,3.60
2023-03-15T20:57:36.434Z,5.15
2023-03-15T21:00:12.324Z,5.87
2023-03-15T21:02:40.294Z,8.63
2023-03-15T21:05:09.517Z,6.32
2023-03-15T21:07:37.495Z,3.55
2023-03-15T21:10:05.788Z,4.45
2023-03-15T21:12:33.185Z,6.05
2023-03-15T21:15:01.759Z,3.30
2023-03-15T21:17:29.566Z,2.62
2023-03-15T21:19:57.055Z,7.05
2023-03-15T21:22:24.777Z,4.30
2023-03-15T21:24:55.863Z,3.22
2023-03-15T21:27:26.190Z,3.53
2023-03-15T21:29:54.612Z,4.28
2023-03-15T21:32:22.043Z,4.45
2023-03-15T21:34:49.426Z,4.35
2023-03-15T21:37:17.405Z,4.90
2023-03-15T21:39:45.056Z,5.97
2023-03-15T21:42:12.390Z,5.47
2023-03-15T21:44:40.438Z,6.78
2023-03-15T21:47:08.090Z,7.45
2023-03-15T21:49:35.424Z,6.00
2023-03-15T21:52:03.106Z,8.43
2023-03-15T21:54:30.517Z,5.93
2023-03-15T21:56:58.191Z,7.75
2023-03-15T21:59:29.270Z,6.85
2023-03-15T22:01:57.284Z,7.00
2023-03-15T22:04:25.068Z,8.10
2023-03-15T22:06:52.969Z,6.12
2023-03-15T22:09:21.033Z,9.13
2023-03-15T22:11:49.125Z,4.62
2023-03-15T22:14:16.631Z,6.47
2023-03-15T22:16:44.351Z,4.85
2023-03-15T22:19:12.079Z,6.28
2023-03-15T22:21:39.461Z,6.43
2023-03-15T22:24:08.381Z,7.28
2023-03-15T22:26:36.147Z,5.72
2023-03-15T22:29:03.790Z,6.90
2023-03-15T22:31:31.809Z,6.93
2023-03-15T22:33:59.486Z,9.93
2023-03-15T22:36:26.798Z,6.82
2023-03-15T22:38:54.144Z,10.30
2023-03-15T22:41:22.047Z,6.05
2023-03-15T22:43:49.485Z,9.00
2023-03-15T22:46:17.347Z,6.53
2023-03-15T22:48:45.218Z,6.57
2023-03-15T22:51:15.380Z,8.95
2023-03-15T22:53:43.001Z,8.10
2023-03-15T22:56:10.747Z,9.27
2023-03-15T22:58:38.209Z,7.90
2023-03-15T23:01:05.661Z,8.70
2023-03-15T23:03:33.421Z,6.45
2023-03-15T23:06:00.740Z,6.05
2023-03-15T23:08:28.146Z,9.05
2023-03-15T23:10:58.812Z,4.70
2023-03-15T23:13:26.169Z,5.90
2023-03-15T23:15:54.237Z,9.73
2023-03-15T23:18:22.094Z,5.60
2023-03-15T23:20:49.543Z,4.47
2023-03-15T23:23:17.148Z,6.85
2023-03-15T23:25:45.966Z,8.43
2023-03-15T23:28:17.056Z,9.80
2023-03-15T23:30:45.578Z,7.57
2023-03-15T23:33:13.423Z,8.38
2023-03-15T23:35:41.952Z,8.65
2023-03-15T23:38:09.712Z,9.20
2023-03-15T23:40:37.388Z,5.68
2023-03-15T23:43:06.042Z,7.32
2023-03-15T23:45:34.088Z,6.45
2023-03-15T23:48:02.639Z,8.45
2023-03-15T23:50:30.309Z,6.95
2023-03-15T23:52:58.172Z,5.22
2023-03-15T23:55:25.565Z,5.07
2023-03-15T23:57:52.960Z,6.93
